sensor_id;sensor_type;location;lat;lon;timestamp;P1;durP1;ratioP1;P2;durP2;ratioP2
1721;SDS011;858;53.190;8.596;2022-08-21T00:00:40;7.20;;;5.43;;
1721;SDS011;858;53.190;8.596;2022-08-21T00:03:08;6.53;;;5.00;;
1721;SDS011;858;53.190;8.596;2022-08-21T00:05:37;6.60;;;5.35;;
1721;SDS011;858;53.190;8.596;2022-08-21T00:08:05;6.10;;;4.97;;
1721;SDS011;858;53.190;8.596;2022-08-21T00:10:31;5.60;;;5.00;;
1721;SDS011;858;53.190;8.596;2022-08-21T00:12:58;5.45;;;4.60;;
1721;SDS011;858;53.190;8.596;2022-08-21T00:15:27;6.07;;;5.10;;
1721;SDS011;858;53.190;8.596;2022-08-21T00:17:56;6.07;;;5.53;;
1721;SDS011;858;53.190;8.596;2022-08-21T00:20:23;7.90;;;4.90;;
1721;SDS011;858;53.190;8.596;2022-08-21T00:22:49;6.03;;;5.10;;
1721;SDS011;858;53.190;8.596;2022-08-21T00:25:18;7.10;;;5.10;;
1721;SDS011;858;53.190;8.596;2022-08-21T00:27:46;5.95;;;5.00;;
1721;SDS011;858;53.190;8.596;2022-08-21T00:30:14;5.13;;;4.63;;
1721;SDS011;858;53.190;8.596;2022-08-21T00:32:41;5.57;;;4.85;;
1721;SDS011;858;53.190;8.596;2022-08-21T00:35:10;7.75;;;4.70;;
1721;SDS011;858;53.190;8.596;2022-08-21T00:37:37;6.63;;;4.20;;
1721;SDS011;858;53.190;8.596;2022-08-21T00:40:07;6.80;;;4.50;;
1721;SDS011;858;53.190;8.596;2022-08-21T00:42:34;7.57;;;4.47;;
1721;SDS011;858;53.190;8.596;2022-08-21T00:45:02;7.53;;;4.50;;
1721;SDS011;858;53.190;8.596;2022-08-21T00:47:29;6.97;;;4.13;;
1721;SDS011;858;53.190;8.596;2022-08-21T00:49:57;7.20;;;4.88;;
1721;SDS011;858;53.190;8.596;2022-08-21T00:52:27;7.85;;;4.40;;
1721;SDS011;858;53.190;8.596;2022-08-21T00:54:54;6.18;;;4.57;;
1721;SDS011;858;53.190;8.596;2022-08-21T00:57:22;6.38;;;4.45;;
1721;SDS011;858;53.190;8.596;2022-08-21T00:59:51;6.23;;;4.10;;
1721;SDS011;858;53.190;8.596;2022-08-21T01:02:18;6.70;;;4.30;;
1721;SDS011;858;53.190;8.596;2022-08-21T01:04:45;8.25;;;4.35;;
1721;SDS011;858;53.190;8.596;2022-08-21T01:07:12;5.80;;;3.78;;
1721;SDS011;858;53.190;8.596;2022-08-21T01:09:42;4.90;;;4.30;;
1721;SDS011;858;53.190;8.596;2022-08-21T01:12:09;4.90;;;3.95;;
1721;SDS011;858;53.190;8.596;2022-08-21T01:14:36;8.88;;;4.60;;
1721;SDS011;858;53.190;8.596;2022-08-21T01:17:05;7.72;;;4.30;;
1721;SDS011;858;53.190;8.596;2022-08-21T01:19:33;9.20;;;4.40;;
1721;SDS011;858;53.190;8.596;2022-08-21T01:22:07;6.20;;;4.40;;
1721;SDS011;858;53.190;8.596;2022-08-21T01:24:33;6.45;;;4.45;;
1721;SDS011;858;53.190;8.596;2022-08-21T01:27:00;6.17;;;4.30;;
1721;SDS011;858;53.190;8.596;2022-08-21T01:29:30;5.53;;;4.20;;
1721;SDS011;858;53.190;8.596;2022-08-21T01:31:58;6.53;;;4.63;;
1721;SDS011;858;53.190;8.596;2022-08-21T01:34:27;7.00;;;4.33;;
1721;SDS011;858;53.190;8.596;2022-08-21T01:36:55;8.40;;;4.65;;
1721;SDS011;858;53.190;8.596;2022-08-21T01:39:22;6.93;;;5.07;;
1721;SDS011;858;53.190;8.596;2022-08-21T01:41:49;10.23;;;4.88;;
1721;SDS011;858;53.190;8.596;2022-08-21T01:44:19;6.32;;;4.32;;
1721;SDS011;858;53.190;8.596;2022-08-21T01:46:46;6.40;;;4.38;;
1721;SDS011;858;53.190;8.596;2022-08-21T01:49:13;7.05;;;4.47;;
1721;SDS011;858;53.190;8.596;2022-08-21T01:51:40;7.25;;;3.95;;
1721;SDS011;858;53.190;8.596;2022-08-21T01:54:06;5.25;;;4.40;;
1721;SDS011;858;53.190;8.596;2022-08-21T01:56:37;8.73;;;4.28;;
1721;SDS011;858;53.190;8.596;2022-08-21T01:59:06;5.18;;;4.28;;
1721;SDS011;858;53.190;8.596;2022-08-21T02:01:32;5.20;;;4.07;;
1721;SDS011;858;53.190;8.596;2022-08-21T02:03:58;5.72;;;4.60;;
1721;SDS011;858;53.190;8.596;2022-08-21T02:06:25;5.18;;;3.80;;
1721;SDS011;858;53.190;8.596;2022-08-21T02:08:52;4.77;;;3.70;;
1721;SDS011;858;53.190;8.596;2022-08-21T02:11:18;7.78;;;4.43;;
1721;SDS011;858;53.190;8.596;2022-08-21T02:13:47;5.10;;;3.75;;
1721;SDS011;858;53.190;8.596;2022-08-21T02:16:14;5.65;;;4.30;;
1721;SDS011;858;53.190;8.596;2022-08-21T02:18:41;6.20;;;3.60;;
1721;SDS011;858;53.190;8.596;2022-08-21T02:21:08;7.07;;;3.60;;
1721;SDS011;858;53.190;8.596;2022-08-21T02:23:34;8.25;;;3.70;;
1721;SDS011;858;53.190;8.596;2022-08-21T02:26:02;6.18;;;4.10;;
1721;SDS011;858;53.190;8.596;2022-08-21T02:28:29;5.00;;;4.20;;
1721;SDS011;858;53.190;8.596;2022-08-21T02:30:57;9.40;;;4.43;;
1721;SDS011;858;53.190;8.596;2022-08-21T02:33:24;6.80;;;4.13;;
1721;SDS011;858;53.190;8.596;2022-08-21T02:35:52;5.55;;;3.83;;
1721;SDS011;858;53.190;8.596;2022-08-21T02:38:19;6.47;;;3.80;;
1721;SDS011;858;53.190;8.596;2022-08-21T02:40:48;10.45;;;4.55;;
1721;SDS011;858;53.190;8.596;2022-08-21T02:43:20;8.20;;;3.90;;
1721;SDS011;858;53.190;8.596;2022-08-21T02:45:50;5.18;;;3.65;;
1721;SDS011;858;53.190;8.596;2022-08-21T02:48:18;5.30;;;4.00;;
1721;SDS011;858;53.190;8.596;2022-08-21T02:50:46;5.40;;;3.65;;
1721;SDS011;858;53.190;8.596;2022-08-21T02:53:13;5.97;;;3.55;;
1721;SDS011;858;53.190;8.596;2022-08-21T02:55:41;9.23;;;4.30;;
1721;SDS011;858;53.190;8.596;2022-08-21T02:58:11;8.70;;;4.30;;
1721;SDS011;858;53.190;8.596;2022-08-21T03:00:38;9.50;;;3.97;;
1721;SDS011;858;53.190;8.596;2022-08-21T03:03:05;6.10;;;3.90;;
1721;SDS011;858;53.190;8.596;2022-08-21T03:05:35;6.90;;;3.88;;
1721;SDS011;858;53.190;8.596;2022-08-21T03:08:02;5.70;;;3.60;;
1721;SDS011;858;53.190;8.596;2022-08-21T03:10:31;7.43;;;3.60;;
1721;SDS011;858;53.190;8.596;2022-08-21T03:12:59;6.25;;;3.85;;
1721;SDS011;858;53.190;8.596;2022-08-21T03:15:27;4.97;;;3.50;;
1721;SDS011;858;53.190;8.596;2022-08-21T03:17:54;7.20;;;4.03;;
1721;SDS011;858;53.190;8.596;2022-08-21T03:20:21;5.65;;;4.00;;
1721;SDS011;858;53.190;8.596;2022-08-21T03:22:50;4.72;;;3.28;;
1721;SDS011;858;53.190;8.596;2022-08-21T03:25:17;6.18;;;4.13;;
1721;SDS011;858;53.190;8.596;2022-08-21T03:27:44;6.63;;;3.63;;
1721;SDS011;858;53.190;8.596;2022-08-21T03:30:10;6.80;;;3.70;;
1721;SDS011;858;53.190;8.596;2022-08-21T03:32:37;7.72;;;4.50;;
1721;SDS011;858;53.190;8.596;2022-08-21T03:35:04;6.35;;;3.80;;
1721;SDS011;858;53.190;8.596;2022-08-21T03:37:30;4.50;;;3.50;;
1721;SDS011;858;53.190;8.596;2022-08-21T03:39:59;5.57;;;3.55;;
1721;SDS011;858;53.190;8.596;2022-08-21T03:42:25;5.05;;;3.63;;
1721;SDS011;858;53.190;8.596;2022-08-21T03:44:52;7.97;;;4.35;;
1721;SDS011;858;53.190;8.596;2022-08-21T03:47:19;5.70;;;3.63;;
1721;SDS011;858;53.190;8.596;2022-08-21T03:49:48;6.47;;;3.65;;
1721;SDS011;858;53.190;8.596;2022-08-21T03:52:16;7.65;;;3.90;;
1721;SDS011;858;53.190;8.596;2022-08-21T03:54:43;5.78;;;3.70;;
1721;SDS011;858;53.190;8.596;2022-08-21T03:57:11;6.28;;;3.78;;
1721;SDS011;858;53.190;8.596;2022-08-21T03:59:38;7.22;;;3.88;;
1721;SDS011;858;53.190;8.596;2022-08-21T04:02:06;9.73;;;4.20;;
1721;SDS011;858;53.190;8.596;2022-08-21T04:04:33;7.70;;;3.70;;
1721;SDS011;858;53.190;8.596;2022-08-21T04:07:00;4.50;;;2.83;;
1721;SDS011;858;53.190;8.596;2022-08-21T04:09:26;6.13;;;3.63;;
1721;SDS011;858;53.190;8.596;2022-08-21T04:11:53;4.60;;;3.20;;
1721;SDS011;858;53.190;8.596;2022-08-21T04:14:21;7.15;;;3.50;;
1721;SDS011;858;53.190;8.596;2022-08-21T04:16:47;5.72;;;3.80;;
1721;SDS011;858;53.190;8.596;2022-08-21T04:19:14;8.13;;;3.95;;
1721;SDS011;858;53.190;8.596;2022-08-21T04:21:40;6.20;;;3.70;;
1721;SDS011;858;53.190;8.596;2022-08-21T04:24:08;5.70;;;3.55;;
1721;SDS011;858;53.190;8.596;2022-08-21T04:26:37;6.00;;;3.60;;
1721;SDS011;858;53.190;8.596;2022-08-21T04:29:04;6.40;;;3.15;;
1721;SDS011;858;53.190;8.596;2022-08-21T04:31:33;9.20;;;3.80;;
1721;SDS011;858;53.190;8.596;2022-08-21T04:34:01;4.07;;;3.20;;
1721;SDS011;858;53.190;8.596;2022-08-21T04:36:27;6.88;;;3.80;;
1721;SDS011;858;53.190;8.596;2022-08-21T04:38:54;4.63;;;3.50;;
1721;SDS011;858;53.190;8.596;2022-08-21T04:41:21;6.13;;;3.47;;
1721;SDS011;858;53.190;8.596;2022-08-21T04:43:47;7.28;;;3.80;;
1721;SDS011;858;53.190;8.596;2022-08-21T04:46:15;5.70;;;3.60;;
1721;SDS011;858;53.190;8.596;2022-08-21T04:48:42;5.22;;;3.67;;
1721;SDS011;858;53.190;8.596;2022-08-21T04:51:09;4.90;;;3.92;;
1721;SDS011;858;53.190;8.596;2022-08-21T04:53:37;6.63;;;4.00;;
1721;SDS011;858;53.190;8.596;2022-08-21T04:56:05;5.03;;;3.40;;
1721;SDS011;858;53.190;8.596;2022-08-21T04:58:33;4.72;;;3.45;;
1721;SDS011;858;53.190;8.596;2022-08-21T05:01:01;7.07;;;3.63;;
1721;SDS011;858;53.190;8.596;2022-08-21T05:03:29;8.17;;;4.20;;
1721;SDS011;858;53.190;8.596;2022-08-21T05:05:57;4.90;;;3.78;;
1721;SDS011;858;53.190;8.596;2022-08-21T05:08:24;6.72;;;3.60;;
1721;SDS011;858;53.190;8.596;2022-08-21T05:10:51;4.97;;;3.78;;
1721;SDS011;858;53.190;8.596;2022-08-21T05:13:17;7.10;;;3.80;;
1721;SDS011;858;53.190;8.596;2022-08-21T05:15:44;6.72;;;3.60;;
1721;SDS011;858;53.190;8.596;2022-08-21T05:18:10;5.30;;;3.97;;
1721;SDS011;858;53.190;8.596;2022-08-21T05:20:37;9.02;;;4.18;;
1721;SDS011;858;53.190;8.596;2022-08-21T05:23:08;7.25;;;3.83;;
1721;SDS011;858;53.190;8.596;2022-08-21T05:25:36;5.70;;;3.90;;
1721;SDS011;858;53.190;8.596;2022-08-21T05:28:02;6.18;;;4.43;;
1721;SDS011;858;53.190;8.596;2022-08-21T05:30:29;7.40;;;4.00;;
1721;SDS011;858;53.190;8.596;2022-08-21T05:32:57;8.60;;;6.00;;
1721;SDS011;858;53.190;8.596;2022-08-21T05:35:25;15.65;;;7.00;;
1721;SDS011;858;53.190;8.596;2022-08-21T05:37:52;10.20;;;7.43;;
1721;SDS011;858;53.190;8.596;2022-08-21T05:40:22;14.47;;;8.57;;
1721;SDS011;858;53.190;8.596;2022-08-21T05:42:49;12.48;;;8.95;;
1721;SDS011;858;53.190;8.596;2022-08-21T05:45:16;13.98;;;9.10;;
1721;SDS011;858;53.190;8.596;2022-08-21T05:47:42;13.32;;;8.75;;
1721;SDS011;858;53.190;8.596;2022-08-21T05:50:09;12.93;;;8.90;;
1721;SDS011;858;53.190;8.596;2022-08-21T05:52:36;13.32;;;9.63;;
1721;SDS011;858;53.190;8.596;2022-08-21T05:55:03;15.93;;;10.80;;
1721;SDS011;858;53.190;8.596;2022-08-21T05:57:32;14.82;;;9.93;;
1721;SDS011;858;53.190;8.596;2022-08-21T05:59:58;13.77;;;10.20;;
1721;SDS011;858;53.190;8.596;2022-08-21T06:02:25;12.77;;;9.60;;
1721;SDS011;858;53.190;8.596;2022-08-21T06:04:51;16.45;;;10.13;;
1721;SDS011;858;53.190;8.596;2022-08-21T06:07:18;15.18;;;10.40;;
1721;SDS011;858;53.190;8.596;2022-08-21T06:09:44;12.68;;;9.27;;
1721;SDS011;858;53.190;8.596;2022-08-21T06:12:11;14.98;;;9.95;;
1721;SDS011;858;53.190;8.596;2022-08-21T06:14:40;14.10;;;9.63;;
1721;SDS011;858;53.190;8.596;2022-08-21T06:17:08;17.20;;;10.40;;
1721;SDS011;858;53.190;8.596;2022-08-21T06:19:35;13.02;;;10.30;;
1721;SDS011;858;53.190;8.596;2022-08-21T06:22:04;13.02;;;9.35;;
1721;SDS011;858;53.190;8.596;2022-08-21T06:24:31;17.40;;;10.43;;
1721;SDS011;858;53.190;8.596;2022-08-21T06:27:03;16.17;;;10.27;;
1721;SDS011;858;53.190;8.596;2022-08-21T06:29:32;16.35;;;11.30;;
1721;SDS011;858;53.190;8.596;2022-08-21T06:32:01;13.68;;;10.40;;
1721;SDS011;858;53.190;8.596;2022-08-21T06:34:27;15.77;;;11.18;;
1721;SDS011;858;53.190;8.596;2022-08-21T06:36:54;16.85;;;11.85;;
1721;SDS011;858;53.190;8.596;2022-08-21T06:39:21;16.27;;;10.80;;
1721;SDS011;858;53.190;8.596;2022-08-21T06:41:50;13.80;;;10.70;;
1721;SDS011;858;53.190;8.596;2022-08-21T06:44:17;13.52;;;11.75;;
1721;SDS011;858;53.190;8.596;2022-08-21T06:46:46;16.42;;;11.27;;
1721;SDS011;858;53.190;8.596;2022-08-21T06:49:14;22.87;;;12.03;;
1721;SDS011;858;53.190;8.596;2022-08-21T06:51:41;19.17;;;11.93;;
1721;SDS011;858;53.190;8.596;2022-08-21T06:54:09;23.20;;;13.60;;
1721;SDS011;858;53.190;8.596;2022-08-21T06:56:40;19.83;;;13.30;;
1721;SDS011;858;53.190;8.596;2022-08-21T06:59:06;21.23;;;12.87;;
1721;SDS011;858;53.190;8.596;2022-08-21T07:01:32;22.15;;;13.00;;
1721;SDS011;858;53.190;8.596;2022-08-21T07:04:00;16.40;;;10.95;;
1721;SDS011;858;53.190;8.596;2022-08-21T07:06:28;17.20;;;10.55;;
1721;SDS011;858;53.190;8.596;2022-08-21T07:08:54;13.20;;;9.40;;
1721;SDS011;858;53.190;8.596;2022-08-21T07:11:22;13.32;;;8.50;;
1721;SDS011;858;53.190;8.596;2022-08-21T07:13:49;11.48;;;8.60;;
1721;SDS011;858;53.190;8.596;2022-08-21T07:16:17;11.45;;;8.23;;
1721;SDS011;858;53.190;8.596;2022-08-21T07:18:43;12.18;;;8.95;;
1721;SDS011;858;53.190;8.596;2022-08-21T07:21:10;16.67;;;8.80;;
1721;SDS011;858;53.190;8.596;2022-08-21T07:23:39;14.98;;;8.57;;
1721;SDS011;858;53.190;8.596;2022-08-21T07:26:06;10.23;;;8.20;;
1721;SDS011;858;53.190;8.596;2022-08-21T07:28:34;11.88;;;7.70;;
1721;SDS011;858;53.190;8.596;2022-08-21T07:31:01;11.60;;;8.20;;
1721;SDS011;858;53.190;8.596;2022-08-21T07:33:29;12.10;;;8.33;;
1721;SDS011;858;53.190;8.596;2022-08-21T07:35:56;13.07;;;8.05;;
1721;SDS011;858;53.190;8.596;2022-08-21T07:38:22;12.93;;;9.00;;
1721;SDS011;858;53.190;8.596;2022-08-21T07:40:50;12.77;;;7.60;;
1721;SDS011;858;53.190;8.596;2022-08-21T07:43:18;13.23;;;7.22;;
1721;SDS011;858;53.190;8.596;2022-08-21T07:45:44;10.18;;;5.93;;
1721;SDS011;858;53.190;8.596;2022-08-21T07:48:10;11.35;;;6.10;;
1721;SDS011;858;53.190;8.596;2022-08-21T07:50:37;9.93;;;5.70;;
1721;SDS011;858;53.190;8.596;2022-08-21T07:53:04;8.52;;;5.28;;
1721;SDS011;858;53.190;8.596;2022-08-21T07:55:33;12.20;;;5.90;;
1721;SDS011;858;53.190;8.596;2022-08-21T07:58:01;8.75;;;4.93;;
1721;SDS011;858;53.190;8.596;2022-08-21T08:00:28;10.00;;;4.87;;
1721;SDS011;858;53.190;8.596;2022-08-21T08:02:56;9.02;;;4.28;;
1721;SDS011;858;53.190;8.596;2022-08-21T08:05:23;12.07;;;4.90;;
1721;SDS011;858;53.190;8.596;2022-08-21T08:07:50;8.35;;;3.90;;
1721;SDS011;858;53.190;8.596;2022-08-21T08:10:17;8.18;;;4.22;;
1721;SDS011;858;53.190;8.596;2022-08-21T08:12:44;6.90;;;4.00;;
1721;SDS011;858;53.190;8.596;2022-08-21T08:15:14;8.40;;;3.90;;
1721;SDS011;858;53.190;8.596;2022-08-21T08:17:41;6.77;;;3.63;;
1721;SDS011;858;53.190;8.596;2022-08-21T08:20:09;8.70;;;3.35;;
1721;SDS011;858;53.190;8.596;2022-08-21T08:22:37;6.97;;;2.80;;
1721;SDS011;858;53.190;8.596;2022-08-21T08:25:06;5.60;;;3.00;;
1721;SDS011;858;53.190;8.596;2022-08-21T08:27:33;6.47;;;2.60;;
1721;SDS011;858;53.190;8.596;2022-08-21T08:30:01;5.50;;;3.20;;
1721;SDS011;858;53.190;8.596;2022-08-21T08:32:29;6.90;;;3.40;;
1721;SDS011;858;53.190;8.596;2022-08-21T08:34:55;7.78;;;3.20;;
1721;SDS011;858;53.190;8.596;2022-08-21T08:37:22;9.90;;;3.97;;
1721;SDS011;858;53.190;8.596;2022-08-21T08:39:48;7.22;;;3.05;;
1721;SDS011;858;53.190;8.596;2022-08-21T08:42:16;6.35;;;3.42;;
1721;SDS011;858;53.190;8.596;2022-08-21T08:44:45;7.35;;;3.35;;
1721;SDS011;858;53.190;8.596;2022-08-21T08:47:12;9.43;;;3.70;;
1721;SDS011;858;53.190;8.596;2022-08-21T08:49:46;8.77;;;3.70;;
1721;SDS011;858;53.190;8.596;2022-08-21T08:52:20;8.63;;;3.90;;
1721;SDS011;858;53.190;8.596;2022-08-21T08:54:51;9.40;;;4.00;;
1721;SDS011;858;53.190;8.596;2022-08-21T08:57:20;8.23;;;3.58;;
1721;SDS011;858;53.190;8.596;2022-08-21T08:59:48;7.82;;;3.70;;
1721;SDS011;858;53.190;8.596;2022-08-21T09:02:16;10.13;;;3.70;;
1721;SDS011;858;53.190;8.596;2022-08-21T09:04:44;7.93;;;3.75;;
1721;SDS011;858;53.190;8.596;2022-08-21T09:07:12;8.30;;;3.88;;
1721;SDS011;858;53.190;8.596;2022-08-21T09:09:46;8.20;;;3.60;;
1721;SDS011;858;53.190;8.596;2022-08-21T09:12:22;7.13;;;3.22;;
1721;SDS011;858;53.190;8.596;2022-08-21T09:14:56;9.20;;;3.10;;
1721;SDS011;858;53.190;8.596;2022-08-21T09:17:33;9.57;;;3.95;;
1721;SDS011;858;53.190;8.596;2022-08-21T09:20:08;9.13;;;4.07;;
1721;SDS011;858;53.190;8.596;2022-08-21T09:22:40;7.20;;;3.30;;
1721;SDS011;858;53.190;8.596;2022-08-21T09:25:11;9.75;;;4.20;;
1721;SDS011;858;53.190;8.596;2022-08-21T09:27:40;8.20;;;3.90;;
1721;SDS011;858;53.190;8.596;2022-08-21T09:30:07;8.30;;;4.20;;
1721;SDS011;858;53.190;8.596;2022-08-21T09:32:35;12.45;;;4.03;;
1721;SDS011;858;53.190;8.596;2022-08-21T09:35:04;10.20;;;4.30;;
1721;SDS011;858;53.190;8.596;2022-08-21T09:37:34;9.02;;;4.25;;
1721;SDS011;858;53.190;8.596;2022-08-21T09:40:02;6.85;;;3.80;;
1721;SDS011;858;53.190;8.596;2022-08-21T09:42:31;10.93;;;4.30;;
1721;SDS011;858;53.190;8.596;2022-08-21T09:45:16;7.88;;;3.60;;
1721;SDS011;858;53.190;8.596;2022-08-21T09:47:43;9.63;;;3.80;;
1721;SDS011;858;53.190;8.596;2022-08-21T09:50:12;8.40;;;3.78;;
1721;SDS011;858;53.190;8.596;2022-08-21T09:52:47;6.85;;;3.40;;
1721;SDS011;858;53.190;8.596;2022-08-21T09:55:15;10.70;;;3.40;;
1721;SDS011;858;53.190;8.596;2022-08-21T09:58:03;9.35;;;4.60;;
1721;SDS011;858;53.190;8.596;2022-08-21T10:00:29;8.70;;;3.80;;
1721;SDS011;858;53.190;8.596;2022-08-21T10:03:07;10.02;;;3.60;;
1721;SDS011;858;53.190;8.596;2022-08-21T10:05:33;8.30;;;3.65;;
1721;SDS011;858;53.190;8.596;2022-08-21T10:08:01;9.07;;;3.63;;
1721;SDS011;858;53.190;8.596;2022-08-21T10:10:29;9.52;;;4.13;;
1721;SDS011;858;53.190;8.596;2022-08-21T10:12:58;9.37;;;3.63;;
1721;SDS011;858;53.190;8.596;2022-08-21T10:15:27;12.25;;;3.60;;
1721;SDS011;858;53.190;8.596;2022-08-21T10:17:59;7.20;;;2.90;;
1721;SDS011;858;53.190;8.596;2022-08-21T10:20:32;8.10;;;3.53;;
1721;SDS011;858;53.190;8.596;2022-08-21T10:23:05;5.70;;;3.17;;
1721;SDS011;858;53.190;8.596;2022-08-21T10:25:35;5.63;;;3.10;;
1721;SDS011;858;53.190;8.596;2022-08-21T10:28:05;11.77;;;3.40;;
1721;SDS011;858;53.190;8.596;2022-08-21T10:30:38;8.40;;;3.10;;
1721;SDS011;858;53.190;8.596;2022-08-21T10:33:11;9.77;;;3.40;;
1721;SDS011;858;53.190;8.596;2022-08-21T10:35:44;7.68;;;3.00;;
1721;SDS011;858;53.190;8.596;2022-08-21T10:40:58;7.38;;;3.20;;
1721;SDS011;858;53.190;8.596;2022-08-21T10:43:33;8.23;;;3.40;;
1721;SDS011;858;53.190;8.596;2022-08-21T10:46:02;10.55;;;3.38;;
1721;SDS011;858;53.190;8.596;2022-08-21T10:48:35;7.80;;;3.40;;
1721;SDS011;858;53.190;8.596;2022-08-21T10:51:04;6.35;;;2.70;;
1721;SDS011;858;53.190;8.596;2022-08-21T10:56:19;6.45;;;2.90;;
1721;SDS011;858;53.190;8.596;2022-08-21T10:58:50;10.65;;;3.30;;
1721;SDS011;858;53.190;8.596;2022-08-21T11:01:23;6.55;;;2.92;;
1721;SDS011;858;53.190;8.596;2022-08-21T11:03:52;6.45;;;3.03;;
1721;SDS011;858;53.190;8.596;2022-08-21T11:06:21;5.35;;;2.20;;
1721;SDS011;858;53.190;8.596;2022-08-21T11:08:49;6.77;;;2.80;;
1721;SDS011;858;53.190;8.596;2022-08-21T11:11:22;4.70;;;2.80;;
1721;SDS011;858;53.190;8.596;2022-08-21T11:13:51;6.28;;;3.00;;
1721;SDS011;858;53.190;8.596;2022-08-21T11:16:21;9.30;;;3.22;;
1721;SDS011;858;53.190;8.596;2022-08-21T11:18:51;4.78;;;2.90;;
1721;SDS011;858;53.190;8.596;2022-08-21T11:21:25;6.10;;;2.92;;
1721;SDS011;858;53.190;8.596;2022-08-21T11:23:54;6.68;;;3.40;;
1721;SDS011;858;53.190;8.596;2022-08-21T11:26:25;5.55;;;2.70;;
1721;SDS011;858;53.190;8.596;2022-08-21T11:28:58;7.03;;;3.20;;
1721;SDS011;858;53.190;8.596;2022-08-21T11:31:32;5.07;;;2.50;;
1721;SDS011;858;53.190;8.596;2022-08-21T11:34:10;5.60;;;2.60;;
1721;SDS011;858;53.190;8.596;2022-08-21T11:36:40;4.75;;;2.78;;
1721;SDS011;858;53.190;8.596;2022-08-21T11:39:12;4.93;;;2.50;;
1721;SDS011;858;53.190;8.596;2022-08-21T11:41:43;9.52;;;3.10;;
1721;SDS011;858;53.190;8.596;2022-08-21T11:44:15;5.05;;;2.70;;
1721;SDS011;858;53.190;8.596;2022-08-21T11:46:44;5.40;;;3.10;;
1721;SDS011;858;53.190;8.596;2022-08-21T11:49:27;6.25;;;3.28;;
1721;SDS011;858;53.190;8.596;2022-08-21T11:51:59;5.40;;;2.92;;
1721;SDS011;858;53.190;8.596;2022-08-21T11:54:28;4.90;;;2.60;;
1721;SDS011;858;53.190;8.596;2022-08-21T11:56:57;6.20;;;2.70;;
1721;SDS011;858;53.190;8.596;2022-08-21T11:59:27;5.43;;;2.50;;
1721;SDS011;858;53.190;8.596;2022-08-21T12:01:57;3.85;;;2.60;;
1721;SDS011;858;53.190;8.596;2022-08-21T12:04:25;7.38;;;2.70;;
1721;SDS011;858;53.190;8.596;2022-08-21T12:06:52;5.53;;;2.55;;
1721;SDS011;858;53.190;8.596;2022-08-21T12:09:30;8.65;;;3.00;;
1721;SDS011;858;53.190;8.596;2022-08-21T12:12:02;4.30;;;2.72;;
1721;SDS011;858;53.190;8.596;2022-08-21T12:14:35;5.30;;;2.60;;
1721;SDS011;858;53.190;8.596;2022-08-21T12:17:04;6.53;;;2.70;;
1721;SDS011;858;53.190;8.596;2022-08-21T12:19:32;5.10;;;2.70;;
1721;SDS011;858;53.190;8.596;2022-08-21T12:22:06;5.75;;;2.60;;
1721;SDS011;858;53.190;8.596;2022-08-21T12:24:35;5.22;;;2.20;;
1721;SDS011;858;53.190;8.596;2022-08-21T12:27:14;8.15;;;2.58;;
1721;SDS011;858;53.190;8.596;2022-08-21T12:29:46;5.70;;;2.60;;
1721;SDS011;858;53.190;8.596;2022-08-21T12:32:20;5.68;;;2.40;;
1721;SDS011;858;53.190;8.596;2022-08-21T12:34:53;6.18;;;2.40;;
1721;SDS011;858;53.190;8.596;2022-08-21T12:37:22;6.20;;;2.60;;
1721;SDS011;858;53.190;8.596;2022-08-21T12:39:50;3.95;;;2.13;;
1721;SDS011;858;53.190;8.596;2022-08-21T12:42:20;7.53;;;2.70;;
1721;SDS011;858;53.190;8.596;2022-08-21T12:44:48;4.53;;;2.38;;
1721;SDS011;858;53.190;8.596;2022-08-21T12:47:20;5.32;;;2.47;;
1721;SDS011;858;53.190;8.596;2022-08-21T12:49:51;7.00;;;2.67;;
1721;SDS011;858;53.190;8.596;2022-08-21T12:52:20;5.43;;;2.60;;
1721;SDS011;858;53.190;8.596;2022-08-21T12:54:47;4.60;;;2.15;;
1721;SDS011;858;53.190;8.596;2022-08-21T12:57:18;7.75;;;2.80;;
1721;SDS011;858;53.190;8.596;2022-08-21T12:59:46;4.88;;;2.50;;
1721;SDS011;858;53.190;8.596;2022-08-21T13:02:18;5.00;;;2.40;;
1721;SDS011;858;53.190;8.596;2022-08-21T13:04:45;5.37;;;2.30;;
1721;SDS011;858;53.190;8.596;2022-08-21T13:07:13;3.80;;;2.60;;
1721;SDS011;858;53.190;8.596;2022-08-21T13:09:41;5.65;;;2.70;;
1721;SDS011;858;53.190;8.596;2022-08-21T13:12:09;5.85;;;2.33;;
1721;SDS011;858;53.190;8.596;2022-08-21T13:14:36;4.80;;;2.13;;
1721;SDS011;858;53.190;8.596;2022-08-21T13:17:05;3.60;;;2.20;;
1721;SDS011;858;53.190;8.596;2022-08-21T13:19:33;4.43;;;2.40;;
1721;SDS011;858;53.190;8.596;2022-08-21T13:22:00;4.00;;;2.25;;
1721;SDS011;858;53.190;8.596;2022-08-21T13:24:28;5.90;;;2.40;;
1721;SDS011;858;53.190;8.596;2022-08-21T13:26:55;4.20;;;2.40;;
1721;SDS011;858;53.190;8.596;2022-08-21T13:29:27;5.20;;;2.80;;
1721;SDS011;858;53.190;8.596;2022-08-21T13:31:54;6.70;;;2.57;;
1721;SDS011;858;53.190;8.596;2022-08-21T13:34:23;5.60;;;2.50;;
1721;SDS011;858;53.190;8.596;2022-08-21T13:36:52;6.03;;;3.05;;
1721;SDS011;858;53.190;8.596;2022-08-21T13:39:20;5.83;;;2.50;;
1721;SDS011;858;53.190;8.596;2022-08-21T13:41:48;4.40;;;2.30;;
1721;SDS011;858;53.190;8.596;2022-08-21T13:44:16;5.00;;;2.30;;
1721;SDS011;858;53.190;8.596;2022-08-21T13:46:42;5.68;;;2.30;;
1721;SDS011;858;53.190;8.596;2022-08-21T13:49:09;4.70;;;2.35;;
1721;SDS011;858;53.190;8.596;2022-08-21T13:51:37;5.88;;;2.65;;
1721;SDS011;858;53.190;8.596;2022-08-21T13:54:13;6.53;;;2.72;;
1721;SDS011;858;53.190;8.596;2022-08-21T13:56:41;6.90;;;2.42;;
1721;SDS011;858;53.190;8.596;2022-08-21T13:59:08;3.85;;;2.10;;
1721;SDS011;858;53.190;8.596;2022-08-21T14:01:35;6.18;;;2.60;;
1721;SDS011;858;53.190;8.596;2022-08-21T14:04:05;5.10;;;3.00;;
1721;SDS011;858;53.190;8.596;2022-08-21T14:06:34;5.67;;;3.10;;
1721;SDS011;858;53.190;8.596;2022-08-21T14:09:07;4.85;;;2.60;;
1721;SDS011;858;53.190;8.596;2022-08-21T14:11:35;4.90;;;2.50;;
1721;SDS011;858;53.190;8.596;2022-08-21T14:14:03;4.47;;;2.38;;
1721;SDS011;858;53.190;8.596;2022-08-21T14:16:41;6.53;;;2.70;;
1721;SDS011;858;53.190;8.596;2022-08-21T14:19:09;4.47;;;2.40;;
1721;SDS011;858;53.190;8.596;2022-08-21T14:21:37;5.30;;;2.80;;
1721;SDS011;858;53.190;8.596;2022-08-21T14:24:09;5.65;;;2.60;;
1721;SDS011;858;53.190;8.596;2022-08-21T14:26:42;3.22;;;2.20;;
1721;SDS011;858;53.190;8.596;2022-08-21T14:29:09;6.00;;;2.80;;
1721;SDS011;858;53.190;8.596;2022-08-21T14:31:36;4.10;;;2.80;;
1721;SDS011;858;53.190;8.596;2022-08-21T14:34:02;5.70;;;2.50;;
1721;SDS011;858;53.190;8.596;2022-08-21T14:36:29;5.45;;;2.33;;
1721;SDS011;858;53.190;8.596;2022-08-21T14:38:55;5.13;;;2.80;;
1721;SDS011;858;53.190;8.596;2022-08-21T14:41:24;5.82;;;2.70;;
1721;SDS011;858;53.190;8.596;2022-08-21T14:43:51;5.97;;;2.20;;
1721;SDS011;858;53.190;8.596;2022-08-21T14:46:21;5.20;;;2.33;;
1721;SDS011;858;53.190;8.596;2022-08-21T14:48:49;5.50;;;2.58;;
1721;SDS011;858;53.190;8.596;2022-08-21T14:51:15;5.93;;;2.50;;
1721;SDS011;858;53.190;8.596;2022-08-21T14:53:42;2.47;;;2.00;;
1721;SDS011;858;53.190;8.596;2022-08-21T14:56:09;5.45;;;2.15;;
1721;SDS011;858;53.190;8.596;2022-08-21T14:58:39;4.03;;;2.00;;
1721;SDS011;858;53.190;8.596;2022-08-21T15:01:06;5.72;;;2.10;;
1721;SDS011;858;53.190;8.596;2022-08-21T15:03:33;3.28;;;1.90;;
1721;SDS011;858;53.190;8.596;2022-08-21T15:06:00;3.70;;;2.00;;
1721;SDS011;858;53.190;8.596;2022-08-21T15:08:27;2.88;;;2.10;;
1721;SDS011;858;53.190;8.596;2022-08-21T15:10:53;4.60;;;2.50;;
1721;SDS011;858;53.190;8.596;2022-08-21T15:13:20;4.30;;;2.10;;
1721;SDS011;858;53.190;8.596;2022-08-21T15:15:48;4.60;;;2.45;;
1721;SDS011;858;53.190;8.596;2022-08-21T15:18:17;2.50;;;2.20;;
1721;SDS011;858;53.190;8.596;2022-08-21T15:20:44;5.32;;;2.55;;
1721;SDS011;858;53.190;8.596;2022-08-21T15:23:10;3.50;;;2.15;;
1721;SDS011;858;53.190;8.596;2022-08-21T15:25:39;3.55;;;2.10;;
1721;SDS011;858;53.190;8.596;2022-08-21T15:28:06;2.30;;;2.00;;
1721;SDS011;858;53.190;8.596;2022-08-21T15:30:32;3.72;;;2.15;;
1721;SDS011;858;53.190;8.596;2022-08-21T15:33:01;3.38;;;1.80;;
1721;SDS011;858;53.190;8.596;2022-08-21T15:35:28;7.55;;;2.58;;
1721;SDS011;858;53.190;8.596;2022-08-21T15:37:54;4.03;;;2.10;;
1721;SDS011;858;53.190;8.596;2022-08-21T15:40:21;4.75;;;2.10;;